sensor_id;sensor_type;location;lat;lon;timestamp;temperature;humidity
55016;DHT22;40919;43.236;21.590;2023-09-18T00:02:14;486.70;2380.80
55016;DHT22;40919;43.236;21.590;2023-09-18T00:04:39;486.90;2380.80
55016;DHT22;40919;43.236;21.590;2023-09-18T00:07:05;486.90;2380.80
55016;DHT22;40919;43.236;21.590;2023-09-18T00:09:31;486.90;2380.80
55016;DHT22;40919;43.236;21.590;2023-09-18T00:11:57;486.90;2380.80
55016;DHT22;40919;43.236;21.590;2023-09-18T00:14:22;486.90;2380.80
55016;DHT22;40919;43.236;21.590;2023-09-18T00:16:49;487.00;2380.80
55016;DHT22;40919;43.236;21.590;2023-09-18T00:19:14;486.90;2380.80
55016;DHT22;40919;43.236;21.590;2023-09-18T00:21:40;486.70;2380.80
55016;DHT22;40919;43.236;21.590;2023-09-18T00:24:06;486.80;2380.80
55016;DHT22;40919;43.236;21.590;2023-09-18T00:26:33;486.90;2380.80
55016;DHT22;40919;43.236;21.590;2023-09-18T00:28:59;487.00;2380.80
55016;DHT22;40919;43.236;21.590;2023-09-18T00:31:25;486.80;2380.80
55016;DHT22;40919;43.236;21.590;2023-09-18T00:33:51;486.70;2380.80
55016;DHT22;40919;43.236;21.590;2023-09-18T00:36:16;486.70;2380.80
55016;DHT22;40919;43.236;21.590;2023-09-18T00:38:42;486.80;2380.80
55016;DHT22;40919;43.236;21.590;2023-09-18T00:41:09;486.70;2380.80
55016;DHT22;40919;43.236;21.590;2023-09-18T00:43:35;486.60;2380.80
55016;DHT22;40919;43.236;21.590;2023-09-18T10:34:12;666.30;2432.00
55016;DHT22;40919;43.236;21.590;2023-09-18T10:36:43;666.30;2432.00
55016;DHT22;40919;43.236;21.590;2023-09-18T10:39:10;666.50;2432.00
55016;DHT22;40919;43.236;21.590;2023-09-18T10:41:38;691.20;2432.00
55016;DHT22;40919;43.236;21.590;2023-09-18T10:44:07;691.30;2432.00
55016;DHT22;40919;43.236;21.590;2023-09-18T10:46:34;691.30;2432.00
55016;DHT22;40919;43.236;21.590;2023-09-18T11:04:04;717.60;2329.60
55016;DHT22;40919;43.236;21.590;2023-09-18T11:11:45;742.50;2329.60
55016;DHT22;40919;43.236;21.590;2023-09-18T11:14:14;742.60;2329.60
55016;DHT22;40919;43.236;21.590;2023-09-18T11:19:11;743.30;2227.20
55016;DHT22;40919;43.236;21.590;2023-09-18T17:12:01;640.60;2432.00
55016;DHT22;40919;43.236;21.590;2023-09-18T17:14:27;640.40;2432.00
55016;DHT22;40919;43.236;21.590;2023-09-18T17:16:53;640.40;2432.00
55016;DHT22;40919;43.236;21.590;2023-09-18T17:19:18;640.40;2432.00
55016;DHT22;40919;43.236;21.590;2023-09-18T17:21:44;640.20;2432.00
55016;DHT22;40919;43.236;21.590;2023-09-18T17:24:10;640.10;2432.00
55016;DHT22;40919;43.236;21.590;2023-09-18T17:26:36;640.10;2432.00
55016;DHT22;40919;43.236;21.590;2023-09-18T17:29:03;640.10;2432.00
55016;DHT22;40919;43.236;21.590;2023-09-18T17:31:29;640.00;2432.00
55016;DHT22;40919;43.236;21.590;2023-09-18T17:36:22;640.20;2432.00
55016;DHT22;40919;43.236;21.590;2023-09-18T17:38:48;640.10;2432.00
55016;DHT22;40919;43.236;21.590;2023-09-18T17:41:17;640.00;2432.00
55016;DHT22;40919;43.236;21.590;2023-09-18T18:13:02;614.60;2432.00
55016;DHT22;40919;43.236;21.590;2023-09-18T18:15:28;614.60;2432.00
55016;DHT22;40919;43.236;21.590;2023-09-18T18:17:54;614.70;2432.00
55016;DHT22;40919;43.236;21.590;2023-09-18T18:20:20;614.50;2432.00
55016;DHT22;40919;43.236;21.590;2023-09-18T18:22:46;614.50;2432.00
55016;DHT22;40919;43.236;21.590;2023-09-18T18:25:12;614.40;2432.00
55016;DHT22;40919;43.236;21.590;2023-09-18T18:27:41;589.70;2432.00
